createdAt,value
2022-08-03T00:05:38.296Z,12640.98242
2022-08-03T00:20:42.396Z,11978.40723
2022-08-03T00:35:50.763Z,14012.7627
2022-08-03T00:50:54.180Z,11159.67676
2022-08-03T01:05:56.483Z,2455.10718
2022-08-03T01:20:58.850Z,5725.69141
2022-08-03T01:36:01.053Z,3694.58911
2022-08-03T01:51:03.289Z,2073.39429
2022-08-03T02:07:00.330Z,1261.17029
2022-08-03T02:22:04.902Z,917.41193
2022-08-03T02:37:07.105Z,690.76996
2022-08-03T02:52:11.350Z,459.79037
2022-08-03T03:07:15.812Z,261.34311
2022-08-03T03:22:18.291Z,113.86318
2022-08-03T03:37:21.819Z,21.68822
2022-08-03T03:52:24.117Z,2.16882
2022-08-03T04:07:26.439Z,0
2022-08-03T04:22:28.700Z,0
2022-08-03T04:37:30.942Z,0
2022-08-03T04:52:33.174Z,0
2022-08-03T05:07:36.686Z,0
2022-08-03T05:22:39.202Z,0
2022-08-03T05:37:41.488Z,0
2022-08-03T05:52:57.466Z,0
2022-08-03T06:07:59.835Z,0
2022-08-03T06:23:02.070Z,0
2022-08-03T06:38:04.587Z,0
2022-08-03T06:53:06.799Z,0
2022-08-03T07:08:09.061Z,0
2022-08-03T07:23:11.958Z,0
2022-08-03T07:38:21.743Z,0
2022-08-03T07:53:23.944Z,0
2022-08-03T08:08:26.139Z,0
2022-08-03T08:23:43.654Z,0
2022-08-03T08:38:47.152Z,0
2022-08-03T08:53:49.392Z,0
2022-08-03T09:08:51.616Z,0
2022-08-03T09:24:02.151Z,0
2022-08-03T09:39:05.523Z,0
2022-08-03T09:54:13.540Z,0
2022-08-03T10:09:20.029Z,0
2022-08-03T10:24:22.267Z,0
2022-08-03T10:39:24.519Z,0
2022-08-03T10:54:26.709Z,0
2022-08-03T11:09:28.949Z,0
2022-08-03T11:24:31.170Z,0
2022-08-03T11:39:33.480Z,0
2022-08-03T11:54:35.720Z,1.08441
2022-08-03T12:09:37.959Z,7.59088
2022-08-03T12:24:40.209Z,42.29204
2022-08-03T12:40:00.561Z,158.32405
2022-08-03T12:55:08.101Z,301.46634
2022-08-03T13:10:10.285Z,486.90067
2022-08-03T13:25:12.690Z,1017.1778
2022-08-03T13:40:14.976Z,1663.48694
2022-08-03T13:55:17.229Z,2066.88794
2022-08-03T14:10:19.449Z,2216.53662
2022-08-03T14:25:21.671Z,2878.02759
2022-08-03T14:40:24.080Z,4390.78125
2022-08-03T14:55:28.738Z,3629.52441
2022-08-03T15:10:44.220Z,2630.78174
2022-08-03T15:26:29.293Z,4760.56543
2022-08-03T15:41:35.141Z,6482.61035
2022-08-03T15:56:37.350Z,7790.41064
2022-08-03T16:11:39.590Z,7863.06592
2022-08-03T16:26:41.838Z,7531.23633
2022-08-03T16:41:53.779Z,7550.75586
2022-08-03T16:57:03.048Z,6964.08936
2022-08-03T17:12:05.266Z,6666.96045
2022-08-03T17:27:09.415Z,6648.52539
2022-08-03T21:13:04.955Z,6617.07764
2022-08-03T21:28:17.145Z,8011.63037
2022-08-03T21:43:29.661Z,8725.17285
2022-08-03T21:58:31.927Z,9620.89648
2022-08-03T22:13:43.917Z,10550.2373
2022-08-03T22:28:46.990Z,10991.59277
2022-08-03T22:43:49.189Z,9742.35059
2022-08-03T22:58:51.416Z,10878.81348
2022-08-03T23:13:53.680Z,8484.43359
2022-08-03T23:28:55.916Z,7291.58154
2022-08-03T23:43:58.145Z,6215.84521
2022-08-03T23:59:00.394Z,15193.68652
